sensor_id;sensor_type;location;lat;lon;timestamp;temperature;humidity
25906;DHT22;13713;52.552;13.204;2022-08-25T00:01:27;26.40;64.00
25906;DHT22;13713;52.552;13.204;2022-08-25T00:03:55;26.40;63.90
25906;DHT22;13713;52.552;13.204;2022-08-25T00:06:21;26.40;63.90
25906;DHT22;13713;52.552;13.204;2022-08-25T00:08:47;26.40;63.90
25906;DHT22;13713;52.552;13.204;2022-08-25T00:11:20;26.40;64.00
25906;DHT22;13713;52.552;13.204;2022-08-25T00:13:49;26.40;64.00
25906;DHT22;13713;52.552;13.204;2022-08-25T00:16:16;26.40;64.00
25906;DHT22;13713;52.552;13.204;2022-08-25T00:18:43;26.40;64.00
25906;DHT22;13713;52.552;13.204;2022-08-25T00:21:15;26.40;64.00
25906;DHT22;13713;52.552;13.204;2022-08-25T00:23:41;26.40;63.90
25906;DHT22;13713;52.552;13.204;2022-08-25T00:26:08;26.40;64.00
25906;DHT22;13713;52.552;13.204;2022-08-25T00:28:34;26.40;64.00
25906;DHT22;13713;52.552;13.204;2022-08-25T00:31:01;26.40;64.00
25906;DHT22;13713;52.552;13.204;2022-08-25T00:33:28;26.40;64.00
25906;DHT22;13713;52.552;13.204;2022-08-25T00:35:56;26.40;64.00
25906;DHT22;13713;52.552;13.204;2022-08-25T00:38:21;26.40;64.00
25906;DHT22;13713;52.552;13.204;2022-08-25T00:40:48;26.40;64.00
25906;DHT22;13713;52.552;13.204;2022-08-25T00:46:05;26.30;63.80
25906;DHT22;13713;52.552;13.204;2022-08-25T00:48:31;26.40;64.00
25906;DHT22;13713;52.552;13.204;2022-08-25T00:50:57;26.30;63.90
25906;DHT22;13713;52.552;13.204;2022-08-25T00:53:22;26.30;63.90
25906;DHT22;13713;52.552;13.204;2022-08-25T00:55:48;26.30;63.90
25906;DHT22;13713;52.552;13.204;2022-08-25T00:58:19;26.30;63.90
25906;DHT22;13713;52.552;13.204;2022-08-25T01:00:48;26.30;63.90
25906;DHT22;13713;52.552;13.204;2022-08-25T01:03:16;26.30;63.90
25906;DHT22;13713;52.552;13.204;2022-08-25T01:05:44;26.30;63.90
25906;DHT22;13713;52.552;13.204;2022-08-25T01:08:12;26.30;63.90
25906;DHT22;13713;52.552;13.204;2022-08-25T01:10:40;26.30;63.90
25906;DHT22;13713;52.552;13.204;2022-08-25T01:13:12;26.30;63.90
25906;DHT22;13713;52.552;13.204;2022-08-25T01:15:39;26.30;63.90
25906;DHT22;13713;52.552;13.204;2022-08-25T01:18:05;26.30;63.90
25906;DHT22;13713;52.552;13.204;2022-08-25T01:20:31;26.30;63.90
25906;DHT22;13713;52.552;13.204;2022-08-25T01:22:58;26.30;63.90
25906;DHT22;13713;52.552;13.204;2022-08-25T01:27:58;26.30;63.90
25906;DHT22;13713;52.552;13.204;2022-08-25T01:30:24;26.30;64.00
25906;DHT22;13713;52.552;13.204;2022-08-25T01:32:50;26.30;64.00
25906;DHT22;13713;52.552;13.204;2022-08-25T01:35:16;26.30;63.90
25906;DHT22;13713;52.552;13.204;2022-08-25T01:37:42;26.30;63.90
25906;DHT22;13713;52.552;13.204;2022-08-25T01:40:08;26.30;63.90
25906;DHT22;13713;52.552;13.204;2022-08-25T01:45:30;26.30;64.00
25906;DHT22;13713;52.552;13.204;2022-08-25T01:47:55;26.30;63.90
25906;DHT22;13713;52.552;13.204;2022-08-25T01:50:21;26.30;64.00
25906;DHT22;13713;52.552;13.204;2022-08-25T01:53:02;26.30;64.00
25906;DHT22;13713;52.552;13.204;2022-08-25T01:55:28;26.20;63.80
25906;DHT22;13713;52.552;13.204;2022-08-25T01:57:54;26.30;64.00
25906;DHT22;13713;52.552;13.204;2022-08-25T02:00:21;26.30;64.00
25906;DHT22;13713;52.552;13.204;2022-08-25T02:02:47;26.40;64.10
25906;DHT22;13713;52.552;13.204;2022-08-25T02:05:14;26.30;64.00
25906;DHT22;13713;52.552;13.204;2022-08-25T02:07:41;26.20;63.80
25906;DHT22;13713;52.552;13.204;2022-08-25T02:10:10;26.30;64.00
25906;DHT22;13713;52.552;13.204;2022-08-25T02:12:36;26.20;63.80
25906;DHT22;13713;52.552;13.204;2022-08-25T02:15:05;26.20;63.90
25906;DHT22;13713;52.552;13.204;2022-08-25T02:17:31;26.20;63.90
25906;DHT22;13713;52.552;13.204;2022-08-25T02:19:58;26.20;63.90
25906;DHT22;13713;52.552;13.204;2022-08-25T02:22:24;26.20;63.90
25906;DHT22;13713;52.552;13.204;2022-08-25T02:24:50;26.10;63.80
25906;DHT22;13713;52.552;13.204;2022-08-25T02:27:15;26.20;63.80
25906;DHT22;13713;52.552;13.204;2022-08-25T02:29:41;26.20;63.90
25906;DHT22;13713;52.552;13.204;2022-08-25T02:32:07;26.20;63.90
25906;DHT22;13713;52.552;13.204;2022-08-25T02:34:33;26.20;63.80
25906;DHT22;13713;52.552;13.204;2022-08-25T02:36:59;26.20;63.80
25906;DHT22;13713;52.552;13.204;2022-08-25T02:39:25;26.20;63.80
25906;DHT22;13713;52.552;13.204;2022-08-25T02:41:51;26.10;63.80
25906;DHT22;13713;52.552;13.204;2022-08-25T02:44:16;26.20;63.80
25906;DHT22;13713;52.552;13.204;2022-08-25T02:46:42;26.20;63.90
25906;DHT22;13713;52.552;13.204;2022-08-25T02:49:07;26.20;63.80
25906;DHT22;13713;52.552;13.204;2022-08-25T02:51:34;26.20;63.80
25906;DHT22;13713;52.552;13.204;2022-08-25T02:54:02;26.20;63.80
25906;DHT22;13713;52.552;13.204;2022-08-25T02:56:30;26.20;63.80
25906;DHT22;13713;52.552;13.204;2022-08-25T02:58:56;26.20;63.80
25906;DHT22;13713;52.552;13.204;2022-08-25T03:01:23;26.20;63.80
25906;DHT22;13713;52.552;13.204;2022-08-25T03:03:49;26.20;63.90
25906;DHT22;13713;52.552;13.204;2022-08-25T03:06:19;26.10;63.80
25906;DHT22;13713;52.552;13.204;2022-08-25T03:08:47;26.20;63.90
25906;DHT22;13713;52.552;13.204;2022-08-25T03:11:13;26.20;63.90
25906;DHT22;13713;52.552;13.204;2022-08-25T03:13:39;26.20;63.80
25906;DHT22;13713;52.552;13.204;2022-08-25T03:16:05;26.20;63.90
25906;DHT22;13713;52.552;13.204;2022-08-25T03:18:31;26.10;63.80
25906;DHT22;13713;52.552;13.204;2022-08-25T03:20:57;26.30;63.90
25906;DHT22;13713;52.552;13.204;2022-08-25T03:23:23;26.10;63.80
25906;DHT22;13713;52.552;13.204;2022-08-25T03:25:49;26.10;63.80
25906;DHT22;13713;52.552;13.204;2022-08-25T03:28:33;26.00;63.70
25906;DHT22;13713;52.552;13.204;2022-08-25T03:31:00;26.10;63.80
25906;DHT22;13713;52.552;13.204;2022-08-25T03:33:27;26.10;63.80
25906;DHT22;13713;52.552;13.204;2022-08-25T03:35:53;26.10;63.80
25906;DHT22;13713;52.552;13.204;2022-08-25T03:38:20;26.10;63.80
25906;DHT22;13713;52.552;13.204;2022-08-25T03:40:47;26.10;63.80
25906;DHT22;13713;52.552;13.204;2022-08-25T03:43:13;26.10;63.80
25906;DHT22;13713;52.552;13.204;2022-08-25T03:45:43;26.10;63.70
25906;DHT22;13713;52.552;13.204;2022-08-25T03:48:10;26.10;63.80
25906;DHT22;13713;52.552;13.204;2022-08-25T03:50:36;26.10;63.80
25906;DHT22;13713;52.552;13.204;2022-08-25T03:53:07;26.10;63.70
25906;DHT22;13713;52.552;13.204;2022-08-25T03:55:33;26.10;63.70
25906;DHT22;13713;52.552;13.204;2022-08-25T03:57:59;26.10;63.70
25906;DHT22;13713;52.552;13.204;2022-08-25T04:00:25;26.10;63.70
25906;DHT22;13713;52.552;13.204;2022-08-25T04:02:50;26.10;63.70
25906;DHT22;13713;52.552;13.204;2022-08-25T04:05:16;26.10;63.70
25906;DHT22;13713;52.552;13.204;2022-08-25T04:07:42;26.10;63.70
25906;DHT22;13713;52.552;13.204;2022-08-25T04:10:09;26.10;63.70
25906;DHT22;13713;52.552;13.204;2022-08-25T04:12:36;26.20;63.80
25906;DHT22;13713;52.552;13.204;2022-08-25T04:15:05;26.10;63.70
25906;DHT22;13713;52.552;13.204;2022-08-25T04:17:32;26.10;63.70
25906;DHT22;13713;52.552;13.204;2022-08-25T04:19:57;26.10;63.70
25906;DHT22;13713;52.552;13.204;2022-08-25T04:22:23;26.10;63.70
25906;DHT22;13713;52.552;13.204;2022-08-25T04:24:49;26.10;64.40
25906;DHT22;13713;52.552;13.204;2022-08-25T04:27:15;26.10;63.70
25906;DHT22;13713;52.552;13.204;2022-08-25T04:29:40;26.00;63.50
25906;DHT22;13713;52.552;13.204;2022-08-25T04:32:06;26.00;63.60
25906;DHT22;13713;52.552;13.204;2022-08-25T04:34:32;26.00;63.50
25906;DHT22;13713;52.552;13.204;2022-08-25T04:36:59;26.00;63.60
25906;DHT22;13713;52.552;13.204;2022-08-25T04:39:26;25.90;63.50
25906;DHT22;13713;52.552;13.204;2022-08-25T04:41:51;25.90;63.60
25906;DHT22;13713;52.552;13.204;2022-08-25T04:44:17;25.90;63.80
25906;DHT22;13713;52.552;13.204;2022-08-25T04:46:43;25.90;63.90
25906;DHT22;13713;52.552;13.204;2022-08-25T04:49:08;25.80;63.70
25906;DHT22;13713;52.552;13.204;2022-08-25T04:51:37;25.80;63.80
25906;DHT22;13713;52.552;13.204;2022-08-25T04:54:06;25.80;63.90
25906;DHT22;13713;52.552;13.204;2022-08-25T04:56:33;25.80;63.80
25906;DHT22;13713;52.552;13.204;2022-08-25T04:59:05;25.70;63.80
25906;DHT22;13713;52.552;13.204;2022-08-25T05:01:31;25.60;63.60
25906;DHT22;13713;52.552;13.204;2022-08-25T05:04:01;25.70;63.80
25906;DHT22;13713;52.552;13.204;2022-08-25T05:06:27;25.70;63.70
25906;DHT22;13713;52.552;13.204;2022-08-25T05:08:54;25.70;63.70
25906;DHT22;13713;52.552;13.204;2022-08-25T05:11:21;25.70;63.70
25906;DHT22;13713;52.552;13.204;2022-08-25T05:13:49;25.70;63.70
25906;DHT22;13713;52.552;13.204;2022-08-25T05:16:16;25.70;63.70
25906;DHT22;13713;52.552;13.204;2022-08-25T05:18:42;25.70;63.70
25906;DHT22;13713;52.552;13.204;2022-08-25T05:21:17;25.80;63.70
25906;DHT22;13713;52.552;13.204;2022-08-25T05:23:43;25.70;63.70
25906;DHT22;13713;52.552;13.204;2022-08-25T05:26:17;25.70;63.70
25906;DHT22;13713;52.552;13.204;2022-08-25T05:28:44;25.70;63.70
25906;DHT22;13713;52.552;13.204;2022-08-25T05:31:12;25.80;63.80
25906;DHT22;13713;52.552;13.204;2022-08-25T05:33:40;25.80;63.70
25906;DHT22;13713;52.552;13.204;2022-08-25T05:36:07;25.70;63.70
25906;DHT22;13713;52.552;13.204;2022-08-25T05:38:33;25.70;63.70
25906;DHT22;13713;52.552;13.204;2022-08-25T05:41:05;25.70;63.80
25906;DHT22;13713;52.552;13.204;2022-08-25T05:43:31;25.70;63.70
25906;DHT22;13713;52.552;13.204;2022-08-25T05:45:58;25.70;63.70
25906;DHT22;13713;52.552;13.204;2022-08-25T05:48:25;25.70;63.80
25906;DHT22;13713;52.552;13.204;2022-08-25T05:50:56;25.70;63.80
25906;DHT22;13713;52.552;13.204;2022-08-25T05:53:24;25.70;63.80
25906;DHT22;13713;52.552;13.204;2022-08-25T05:55:52;25.70;63.80
25906;DHT22;13713;52.552;13.204;2022-08-25T05:58:19;25.70;63.80
25906;DHT22;13713;52.552;13.204;2022-08-25T06:00:45;25.70;64.00
25906;DHT22;13713;52.552;13.204;2022-08-25T06:03:10;25.70;64.00
25906;DHT22;13713;52.552;13.204;2022-08-25T06:05:36;25.70;64.10
25906;DHT22;13713;52.552;13.204;2022-08-25T06:08:02;25.70;64.20
25906;DHT22;13713;52.552;13.204;2022-08-25T06:10:28;25.70;64.30
25906;DHT22;13713;52.552;13.204;2022-08-25T06:12:54;25.60;64.80
25906;DHT22;13713;52.552;13.204;2022-08-25T06:15:22;25.70;65.20
25906;DHT22;13713;52.552;13.204;2022-08-25T06:17:48;25.60;64.80
25906;DHT22;13713;52.552;13.204;2022-08-25T06:20:22;25.60;65.10
25906;DHT22;13713;52.552;13.204;2022-08-25T06:22:49;25.60;65.10
25906;DHT22;13713;52.552;13.204;2022-08-25T06:25:17;25.60;65.30
25906;DHT22;13713;52.552;13.204;2022-08-25T06:27:43;25.50;65.30
25906;DHT22;13713;52.552;13.204;2022-08-25T06:30:12;25.50;65.50
25906;DHT22;13713;52.552;13.204;2022-08-25T06:32:40;25.40;65.40
25906;DHT22;13713;52.552;13.204;2022-08-25T06:35:09;25.40;65.60
25906;DHT22;13713;52.552;13.204;2022-08-25T06:37:35;25.40;65.60
25906;DHT22;13713;52.552;13.204;2022-08-25T06:40:00;25.40;65.80
25906;DHT22;13713;52.552;13.204;2022-08-25T06:42:27;25.40;66.00
25906;DHT22;13713;52.552;13.204;2022-08-25T06:44:53;25.30;66.10
25906;DHT22;13713;52.552;13.204;2022-08-25T06:47:19;25.40;66.40
25906;DHT22;13713;52.552;13.204;2022-08-25T06:49:46;25.30;66.20
25906;DHT22;13713;52.552;13.204;2022-08-25T06:52:12;25.30;66.80
25906;DHT22;13713;52.552;13.204;2022-08-25T06:54:38;25.30;66.60
25906;DHT22;13713;52.552;13.204;2022-08-25T06:57:04;25.30;66.60
25906;DHT22;13713;52.552;13.204;2022-08-25T06:59:31;25.20;66.70
25906;DHT22;13713;52.552;13.204;2022-08-25T07:01:57;25.20;67.70
25906;DHT22;13713;52.552;13.204;2022-08-25T07:04:23;25.20;67.10
25906;DHT22;13713;52.552;13.204;2022-08-25T07:06:49;25.20;67.00
25906;DHT22;13713;52.552;13.204;2022-08-25T07:09:15;25.20;67.20
25906;DHT22;13713;52.552;13.204;2022-08-25T07:11:42;25.20;67.30
25906;DHT22;13713;52.552;13.204;2022-08-25T07:14:10;25.30;67.30
25906;DHT22;13713;52.552;13.204;2022-08-25T07:16:37;25.20;67.30
25906;DHT22;13713;52.552;13.204;2022-08-25T07:19:04;25.10;67.60
25906;DHT22;13713;52.552;13.204;2022-08-25T07:21:31;25.10;67.50
25906;DHT22;13713;52.552;13.204;2022-08-25T07:23:58;25.10;67.70
25906;DHT22;13713;52.552;13.204;2022-08-25T07:26:27;25.10;67.90
25906;DHT22;13713;52.552;13.204;2022-08-25T07:28:53;25.10;67.70
25906;DHT22;13713;52.552;13.204;2022-08-25T07:31:19;25.10;67.90
25906;DHT22;13713;52.552;13.204;2022-08-25T07:33:45;25.00;67.90
25906;DHT22;13713;52.552;13.204;2022-08-25T07:36:32;25.00;68.40
25906;DHT22;13713;52.552;13.204;2022-08-25T07:38:58;25.00;68.20
25906;DHT22;13713;52.552;13.204;2022-08-25T07:41:25;25.00;68.80
25906;DHT22;13713;52.552;13.204;2022-08-25T07:43:51;25.00;68.10
25906;DHT22;13713;52.552;13.204;2022-08-25T07:46:17;25.00;68.20
25906;DHT22;13713;52.552;13.204;2022-08-25T07:48:43;25.00;68.20
25906;DHT22;13713;52.552;13.204;2022-08-25T07:51:10;25.00;68.20
25906;DHT22;13713;52.552;13.204;2022-08-25T07:53:36;25.00;68.30
25906;DHT22;13713;52.552;13.204;2022-08-25T07:56:07;25.00;68.30
25906;DHT22;13713;52.552;13.204;2022-08-25T07:58:33;25.00;68.60
25906;DHT22;13713;52.552;13.204;2022-08-25T08:00:58;25.00;68.30
25906;DHT22;13713;52.552;13.204;2022-08-25T08:03:24;25.00;68.50
25906;DHT22;13713;52.552;13.204;2022-08-25T08:05:50;25.00;69.60
25906;DHT22;13713;52.552;13.204;2022-08-25T08:08:15;25.00;68.80
25906;DHT22;13713;52.552;13.204;2022-08-25T08:10:41;25.10;70.00
25906;DHT22;13713;52.552;13.204;2022-08-25T08:13:08;25.00;68.90
25906;DHT22;13713;52.552;13.204;2022-08-25T08:15:36;25.10;69.80
25906;DHT22;13713;52.552;13.204;2022-08-25T08:18:02;25.00;69.80
25906;DHT22;13713;52.552;13.204;2022-08-25T08:20:28;25.00;69.90
25906;DHT22;13713;52.552;13.204;2022-08-25T08:22:58;25.00;70.30
25906;DHT22;13713;52.552;13.204;2022-08-25T08:25:24;25.00;70.50
25906;DHT22;13713;52.552;13.204;2022-08-25T08:27:50;25.00;70.10
25906;DHT22;13713;52.552;13.204;2022-08-25T08:30:16;25.00;70.80
25906;DHT22;13713;52.552;13.204;2022-08-25T08:32:41;25.00;70.60
25906;DHT22;13713;52.552;13.204;2022-08-25T08:35:08;25.00;71.70
25906;DHT22;13713;52.552;13.204;2022-08-25T08:37:34;25.00;72.30
25906;DHT22;13713;52.552;13.204;2022-08-25T08:40:04;25.00;73.20
25906;DHT22;13713;52.552;13.204;2022-08-25T08:43:05;25.00;73.40
25906;DHT22;13713;52.552;13.204;2022-08-25T08:45:50;25.00;73.70
25906;DHT22;13713;52.552;13.204;2022-08-25T08:51:22;25.00;74.10
25906;DHT22;13713;52.552;13.204;2022-08-25T08:54:13;25.00;74.60
25906;DHT22;13713;52.552;13.204;2022-08-25T08:56:55;25.00;74.80
25906;DHT22;13713;52.552;13.204;2022-08-25T08:59:26;24.80;74.90
25906;DHT22;13713;52.552;13.204;2022-08-25T09:01:57;25.00;75.80
25906;DHT22;13713;52.552;13.204;2022-08-25T09:04:45;25.00;75.30
25906;DHT22;13713;52.552;13.204;2022-08-25T09:07:20;25.00;75.80
25906;DHT22;13713;52.552;13.204;2022-08-25T09:09:46;25.00;76.00
25906;DHT22;13713;52.552;13.204;2022-08-25T09:12:42;25.00;75.80
25906;DHT22;13713;52.552;13.204;2022-08-25T09:15:33;25.00;76.20
25906;DHT22;13713;52.552;13.204;2022-08-25T09:18:28;25.00;76.40
25906;DHT22;13713;52.552;13.204;2022-08-25T09:21:25;25.00;76.30
25906;DHT22;13713;52.552;13.204;2022-08-25T09:32:11;25.10;76.60
25906;DHT22;13713;52.552;13.204;2022-08-25T09:34:38;25.10;76.20
25906;DHT22;13713;52.552;13.204;2022-08-25T09:37:04;25.00;76.30
25906;DHT22;13713;52.552;13.204;2022-08-25T09:39:30;25.10;76.00
25906;DHT22;13713;52.552;13.204;2022-08-25T09:41:57;25.10;76.30
25906;DHT22;13713;52.552;13.204;2022-08-25T09:44:31;25.10;76.00
25906;DHT22;13713;52.552;13.204;2022-08-25T09:47:04;25.20;76.70
25906;DHT22;13713;52.552;13.204;2022-08-25T09:49:46;25.20;76.50
25906;DHT22;13713;52.552;13.204;2022-08-25T09:52:22;25.20;76.50
25906;DHT22;13713;52.552;13.204;2022-08-25T09:54:49;25.20;75.90
25906;DHT22;13713;52.552;13.204;2022-08-25T09:57:37;25.30;76.70
25906;DHT22;13713;52.552;13.204;2022-08-25T10:05:25;25.30;76.40
25906;DHT22;13713;52.552;13.204;2022-08-25T10:07:58;25.30;76.60
25906;DHT22;13713;52.552;13.204;2022-08-25T10:10:32;25.30;76.80
25906;DHT22;13713;52.552;13.204;2022-08-25T10:13:00;25.30;76.50
25906;DHT22;13713;52.552;13.204;2022-08-25T10:15:35;25.40;76.50
25906;DHT22;13713;52.552;13.204;2022-08-25T10:18:21;25.40;76.50
25906;DHT22;13713;52.552;13.204;2022-08-25T10:23:40;25.40;76.40
25906;DHT22;13713;52.552;13.204;2022-08-25T10:26:35;25.40;76.50
25906;DHT22;13713;52.552;13.204;2022-08-25T10:29:01;25.40;76.50
25906;DHT22;13713;52.552;13.204;2022-08-25T10:31:52;25.40;76.20
25906;DHT22;13713;52.552;13.204;2022-08-25T10:37:05;25.50;76.30
25906;DHT22;13713;52.552;13.204;2022-08-25T10:39:43;25.50;76.70
25906;DHT22;13713;52.552;13.204;2022-08-25T10:42:33;25.50;76.70
25906;DHT22;13713;52.552;13.204;2022-08-25T10:45:02;25.50;76.60
25906;DHT22;13713;52.552;13.204;2022-08-25T10:53:53;25.60;76.50
25906;DHT22;13713;52.552;13.204;2022-08-25T10:56:39;25.60;76.70
25906;DHT22;13713;52.552;13.204;2022-08-25T11:05:53;25.70;76.50
25906;DHT22;13713;52.552;13.204;2022-08-25T11:08:09;25.70;76.50
25906;DHT22;13713;52.552;13.204;2022-08-25T11:13:51;25.70;76.10
25906;DHT22;13713;52.552;13.204;2022-08-25T11:19:04;25.80;75.50
25906;DHT22;13713;52.552;13.204;2022-08-25T11:21:48;25.80;75.80
25906;DHT22;13713;52.552;13.204;2022-08-25T11:26:48;25.70;75.50
25906;DHT22;13713;52.552;13.204;2022-08-25T11:29:18;25.90;75.40
25906;DHT22;13713;52.552;13.204;2022-08-25T11:31:50;25.90;75.30
25906;DHT22;13713;52.552;13.204;2022-08-25T11:34:16;25.90;75.10
25906;DHT22;13713;52.552;13.204;2022-08-25T11:36:54;26.00;75.10
25906;DHT22;13713;52.552;13.204;2022-08-25T11:51:00;26.00;74.40
25906;DHT22;13713;52.552;13.204;2022-08-25T11:53:33;26.00;74.40
25906;DHT22;13713;52.552;13.204;2022-08-25T11:56:08;26.10;74.90
25906;DHT22;13713;52.552;13.204;2022-08-25T12:12:37;26.10;73.80
25906;DHT22;13713;52.552;13.204;2022-08-25T12:15:32;26.20;73.80
25906;DHT22;13713;52.552;13.204;2022-08-25T12:23:45;26.20;72.80
25906;DHT22;13713;52.552;13.204;2022-08-25T12:26:44;26.20;72.90
25906;DHT22;13713;52.552;13.204;2022-08-25T12:29:12;26.20;73.00
25906;DHT22;13713;52.552;13.204;2022-08-25T12:40:36;26.30;71.90
25906;DHT22;13713;52.552;13.204;2022-08-25T12:43:07;26.20;70.60
25906;DHT22;13713;52.552;13.204;2022-08-25T12:45:42;26.20;69.50
25906;DHT22;13713;52.552;13.204;2022-08-25T12:51:18;26.30;70.10
25906;DHT22;13713;52.552;13.204;2022-08-25T12:56:31;26.30;70.60
25906;DHT22;13713;52.552;13.204;2022-08-25T13:04:36;26.30;70.80
25906;DHT22;13713;52.552;13.204;2022-08-25T13:07:32;26.30;70.80
25906;DHT22;13713;52.552;13.204;2022-08-25T13:13:09;26.40;71.90
25906;DHT22;13713;52.552;13.204;2022-08-25T13:15:41;26.40;71.20
25906;DHT22;13713;52.552;13.204;2022-08-25T13:18:30;26.40;71.20
25906;DHT22;13713;52.552;13.204;2022-08-25T13:21:27;26.40;71.40
25906;DHT22;13713;52.552;13.204;2022-08-25T13:23:55;26.40;70.80
25906;DHT22;13713;52.552;13.204;2022-08-25T13:26:33;26.50;71.40
25906;DHT22;13713;52.552;13.204;2022-08-25T13:29:24;26.50;71.00
25906;DHT22;13713;52.552;13.204;2022-08-25T13:31:56;26.50;70.50
25906;DHT22;13713;52.552;13.204;2022-08-25T13:34:25;26.50;70.70
25906;DHT22;13713;52.552;13.204;2022-08-25T13:36:51;26.50;70.80
25906;DHT22;13713;52.552;13.204;2022-08-25T13:39:36;26.50;70.90
25906;DHT22;13713;52.552;13.204;2022-08-25T13:42:04;26.60;70.80
25906;DHT22;13713;52.552;13.204;2022-08-25T13:44:35;26.50;71.00
25906;DHT22;13713;52.552;13.204;2022-08-25T13:49:39;26.50;70.90
25906;DHT22;13713;52.552;13.204;2022-08-25T13:52:05;26.60;70.90
25906;DHT22;13713;52.552;13.204;2022-08-25T13:54:37;26.70;71.00
25906;DHT22;13713;52.552;13.204;2022-08-25T13:57:10;26.70;70.90
25906;DHT22;13713;52.552;13.204;2022-08-25T13:59:40;26.70;70.50
25906;DHT22;13713;52.552;13.204;2022-08-25T14:02:08;26.70;70.40
25906;DHT22;13713;52.552;13.204;2022-08-25T14:17:29;26.80;70.10
25906;DHT22;13713;52.552;13.204;2022-08-25T14:19:56;26.80;69.90
25906;DHT22;13713;52.552;13.204;2022-08-25T14:22:21;26.90;69.80
25906;DHT22;13713;52.552;13.204;2022-08-25T14:24:47;26.90;69.60
25906;DHT22;13713;52.552;13.204;2022-08-25T14:27:13;26.90;69.30
25906;DHT22;13713;52.552;13.204;2022-08-25T14:29:38;26.90;69.50
25906;DHT22;13713;52.552;13.204;2022-08-25T14:32:04;26.90;69.40
25906;DHT22;13713;52.552;13.204;2022-08-25T14:34:33;27.00;69.30
25906;DHT22;13713;52.552;13.204;2022-08-25T14:37:16;27.00;69.20
25906;DHT22;13713;52.552;13.204;2022-08-25T14:39:43;27.00;69.30
25906;DHT22;13713;52.552;13.204;2022-08-25T14:42:10;27.00;70.10
25906;DHT22;13713;52.552;13.204;2022-08-25T14:44:36;27.00;69.50
25906;DHT22;13713;52.552;13.204;2022-08-25T14:47:02;27.00;69.60
25906;DHT22;13713;52.552;13.204;2022-08-25T14:49:31;27.00;69.60
25906;DHT22;13713;52.552;13.204;2022-08-25T14:52:07;27.00;69.60
25906;DHT22;13713;52.552;13.204;2022-08-25T14:54:33;27.00;68.80
25906;DHT22;13713;52.552;13.204;2022-08-25T14:56:59;27.10;68.60
25906;DHT22;13713;52.552;13.204;2022-08-25T14:59:25;27.00;68.50
25906;DHT22;13713;52.552;13.204;2022-08-25T15:01:51;27.10;68.70
25906;DHT22;13713;52.552;13.204;2022-08-25T15:04:19;27.00;68.70
25906;DHT22;13713;52.552;13.204;2022-08-25T15:06:50;27.10;68.60
25906;DHT22;13713;52.552;13.204;2022-08-25T15:09:17;27.10;68.50
25906;DHT22;13713;52.552;13.204;2022-08-25T15:11:49;27.10;68.20
25906;DHT22;13713;52.552;13.204;2022-08-25T15:14:16;27.10;68.50
25906;DHT22;13713;52.552;13.204;2022-08-25T15:16:54;27.10;68.40
25906;DHT22;13713;52.552;13.204;2022-08-25T15:19:24;27.10;68.50
25906;DHT22;13713;52.552;13.204;2022-08-25T15:21:51;27.10;68.00
25906;DHT22;13713;52.552;13.204;2022-08-25T15:24:18;27.20;67.70
25906;DHT22;13713;52.552;13.204;2022-08-25T15:26:56;27.10;67.60
25906;DHT22;13713;52.552;13.204;2022-08-25T15:29:24;27.20;67.90
25906;DHT22;13713;52.552;13.204;2022-08-25T15:31:51;27.10;67.80
25906;DHT22;13713;52.552;13.204;2022-08-25T15:34:17;27.10;68.20
25906;DHT22;13713;52.552;13.204;2022-08-25T15:36:43;27.10;67.90
25906;DHT22;13713;52.552;13.204;2022-08-25T15:39:10;27.20;68.10
25906;DHT22;13713;52.552;13.204;2022-08-25T15:41:35;27.20;67.90
25906;DHT22;13713;52.552;13.204;2022-08-25T15:44:04;27.20;67.70
25906;DHT22;13713;52.552;13.204;2022-08-25T15:46:31;27.20;67.50
25906;DHT22;13713;52.552;13.204;2022-08-25T15:48:57;27.10;67.20
25906;DHT22;13713;52.552;13.204;2022-08-25T15:51:24;27.20;67.40
25906;DHT22;13713;52.552;13.204;2022-08-25T15:53:50;27.20;67.60
25906;DHT22;13713;52.552;13.204;2022-08-25T15:56:16;27.10;67.30
25906;DHT22;13713;52.552;13.204;2022-08-25T15:58:44;27.20;67.40
25906;DHT22;13713;52.552;13.204;2022-08-25T16:01:17;27.20;67.50
25906;DHT22;13713;52.552;13.204;2022-08-25T16:03:43;27.20;67.60
25906;DHT22;13713;52.552;13.204;2022-08-25T16:06:09;27.20;67.60
25906;DHT22;13713;52.552;13.204;2022-08-25T16:08:35;27.20;67.70
25906;DHT22;13713;52.552;13.204;2022-08-25T16:11:01;27.20;67.70
25906;DHT22;13713;52.552;13.204;2022-08-25T16:13:26;27.30;67.70
25906;DHT22;13713;52.552;13.204;2022-08-25T16:15:52;27.20;67.90
25906;DHT22;13713;52.552;13.204;2022-08-25T16:18:20;27.30;68.00
25906;DHT22;13713;52.552;13.204;2022-08-25T16:20:46;27.30;68.80
25906;DHT22;13713;52.552;13.204;2022-08-25T16:23:13;27.30;68.00
25906;DHT22;13713;52.552;13.204;2022-08-25T16:25:41;27.30;68.80
25906;DHT22;13713;52.552;13.204;2022-08-25T16:28:09;27.30;68.00
25906;DHT22;13713;52.552;13.204;2022-08-25T16:30:36;27.30;68.00
25906;DHT22;13713;52.552;13.204;2022-08-25T16:33:07;27.30;68.00
25906;DHT22;13713;52.552;13.204;2022-08-25T16:35:32;27.30;68.00
25906;DHT22;13713;52.552;13.204;2022-08-25T16:37:58;27.30;67.90
25906;DHT22;13713;52.552;13.204;2022-08-25T16:40:25;27.30;68.00
25906;DHT22;13713;52.552;13.204;2022-08-25T16:42:53;27.30;67.90
25906;DHT22;13713;52.552;13.204;2022-08-25T16:45:20;27.40;68.00
25906;DHT22;13713;52.552;13.204;2022-08-25T16:47:47;27.30;67.90
25906;DHT22;13713;52.552;13.204;2022-08-25T16:50:13;27.30;67.90
25906;DHT22;13713;52.552;13.204;2022-08-25T16:52:40;27.30;67.90
25906;DHT22;13713;52.552;13.204;2022-08-25T16:55:25;27.30;67.90
25906;DHT22;13713;52.552;13.204;2022-08-25T16:57:52;27.30;67.80
25906;DHT22;13713;52.552;13.204;2022-08-25T17:00:26;27.30;67.80
25906;DHT22;13713;52.552;13.204;2022-08-25T17:02:57;27.40;67.90
25906;DHT22;13713;52.552;13.204;2022-08-25T17:05:25;27.30;67.80
25906;DHT22;13713;52.552;13.204;2022-08-25T17:07:51;27.30;67.90
25906;DHT22;13713;52.552;13.204;2022-08-25T17:10:40;27.20;67.70
25906;DHT22;13713;52.552;13.204;2022-08-25T17:13:06;27.30;67.80
25906;DHT22;13713;52.552;13.204;2022-08-25T17:15:32;27.30;67.80
25906;DHT22;13713;52.552;13.204;2022-08-25T17:17:58;27.30;67.80
25906;DHT22;13713;52.552;13.204;2022-08-25T17:20:24;27.30;67.80
25906;DHT22;13713;52.552;13.204;2022-08-25T17:22:50;27.30;67.80
25906;DHT22;13713;52.552;13.204;2022-08-25T17:25:16;27.30;67.80
25906;DHT22;13713;52.552;13.204;2022-08-25T17:27:42;27.30;67.80
25906;DHT22;13713;52.552;13.204;2022-08-25T17:30:08;27.30;67.70